sensor_id;sensor_type;location;lat;lon;timestamp;temperature;humidity
2657;DHT22;1338;48.176;11.792;2023-07-29T00:00:36;15.50;1.00
2657;DHT22;1338;48.176;11.792;2023-07-29T00:03:06;15.40;1.00
2657;DHT22;1338;48.176;11.792;2023-07-29T00:05:35;15.40;1.00
2657;DHT22;1338;48.176;11.792;2023-07-29T00:08:04;15.40;1.00
2657;DHT22;1338;48.176;11.792;2023-07-29T00:10:35;15.40;1.00
2657;DHT22;1338;48.176;11.792;2023-07-29T00:13:07;15.40;1.00
2657;DHT22;1338;48.176;11.792;2023-07-29T00:15:36;15.40;1.00
2657;DHT22;1338;48.176;11.792;2023-07-29T00:18:05;15.30;1.00
2657;DHT22;1338;48.176;11.792;2023-07-29T00:20:33;15.30;1.00
2657;DHT22;1338;48.176;11.792;2023-07-29T00:23:02;15.30;1.00
2657;DHT22;1338;48.176;11.792;2023-07-29T00:25:31;15.30;1.00
2657;DHT22;1338;48.176;11.792;2023-07-29T00:27:59;15.20;1.00
2657;DHT22;1338;48.176;11.792;2023-07-29T00:30:32;15.20;71.60
2657;DHT22;1338;48.176;11.792;2023-07-29T00:33:01;15.20;56.90
2657;DHT22;1338;48.176;11.792;2023-07-29T00:35:30;15.20;99.70
2657;DHT22;1338;48.176;11.792;2023-07-29T00:37:59;15.10;99.90
2657;DHT22;1338;48.176;11.792;2023-07-29T00:40:29;15.00;99.90
2657;DHT22;1338;48.176;11.792;2023-07-29T00:42:58;15.00;99.90
2657;DHT22;1338;48.176;11.792;2023-07-29T00:45:30;15.00;99.90
2657;DHT22;1338;48.176;11.792;2023-07-29T00:48:00;14.90;99.90
2657;DHT22;1338;48.176;11.792;2023-07-29T00:50:31;14.90;99.90
2657;DHT22;1338;48.176;11.792;2023-07-29T00:53:00;14.90;99.90
2657;DHT22;1338;48.176;11.792;2023-07-29T00:55:29;14.80;99.90
2657;DHT22;1338;48.176;11.792;2023-07-29T00:57:58;14.80;99.90
2657;DHT22;1338;48.176;11.792;2023-07-29T01:00:27;14.80;99.90
2657;DHT22;1338;48.176;11.792;2023-07-29T01:02:57;14.80;99.90
2657;DHT22;1338;48.176;11.792;2023-07-29T01:05:32;14.80;99.90
2657;DHT22;1338;48.176;11.792;2023-07-29T01:08:08;14.80;99.90
2657;DHT22;1338;48.176;11.792;2023-07-29T01:10:49;14.80;99.90
2657;DHT22;1338;48.176;11.792;2023-07-29T01:13:25;14.90;99.90
2657;DHT22;1338;48.176;11.792;2023-07-29T01:16:00;14.90;1.00
2657;DHT22;1338;48.176;11.792;2023-07-29T01:18:32;15.00;1.00
2657;DHT22;1338;48.176;11.792;2023-07-29T01:21:05;15.00;1.00
2657;DHT22;1338;48.176;11.792;2023-07-29T01:23:37;15.00;1.00
2657;DHT22;1338;48.176;11.792;2023-07-29T01:26:05;14.90;1.00
2657;DHT22;1338;48.176;11.792;2023-07-29T01:28:34;14.90;1.00
2657;DHT22;1338;48.176;11.792;2023-07-29T01:31:07;14.90;1.00
2657;DHT22;1338;48.176;11.792;2023-07-29T01:33:42;14.90;1.00
2657;DHT22;1338;48.176;11.792;2023-07-29T01:36:18;14.90;1.00
2657;DHT22;1338;48.176;11.792;2023-07-29T01:38:49;15.00;1.00
2657;DHT22;1338;48.176;11.792;2023-07-29T01:41:20;15.00;1.00
2657;DHT22;1338;48.176;11.792;2023-07-29T01:43:50;15.00;1.00
2657;DHT22;1338;48.176;11.792;2023-07-29T01:46:19;14.90;1.00
2657;DHT22;1338;48.176;11.792;2023-07-29T01:48:48;15.00;1.00
2657;DHT22;1338;48.176;11.792;2023-07-29T01:51:16;15.00;1.00
2657;DHT22;1338;48.176;11.792;2023-07-29T01:53:45;14.90;1.00
2657;DHT22;1338;48.176;11.792;2023-07-29T01:56:16;14.90;1.00
2657;DHT22;1338;48.176;11.792;2023-07-29T01:58:52;15.00;1.00
2657;DHT22;1338;48.176;11.792;2023-07-29T02:01:20;15.10;1.00
2657;DHT22;1338;48.176;11.792;2023-07-29T02:03:49;15.00;1.00
2657;DHT22;1338;48.176;11.792;2023-07-29T02:06:23;15.20;99.90
2657;DHT22;1338;48.176;11.792;2023-07-29T02:08:53;15.20;99.90
2657;DHT22;1338;48.176;11.792;2023-07-29T02:11:23;15.30;99.90
2657;DHT22;1338;48.176;11.792;2023-07-29T02:13:55;15.40;99.90
2657;DHT22;1338;48.176;11.792;2023-07-29T02:16:28;15.30;99.90
2657;DHT22;1338;48.176;11.792;2023-07-29T02:18:57;15.20;99.90
2657;DHT22;1338;48.176;11.792;2023-07-29T02:21:26;15.10;99.90
2657;DHT22;1338;48.176;11.792;2023-07-29T02:23:55;15.10;99.90
2657;DHT22;1338;48.176;11.792;2023-07-29T02:26:27;15.20;99.90
2657;DHT22;1338;48.176;11.792;2023-07-29T02:28:57;15.10;99.90
2657;DHT22;1338;48.176;11.792;2023-07-29T02:31:26;15.00;1.00
2657;DHT22;1338;48.176;11.792;2023-07-29T02:33:54;15.00;1.00
2657;DHT22;1338;48.176;11.792;2023-07-29T02:36:23;14.90;1.00
2657;DHT22;1338;48.176;11.792;2023-07-29T02:38:54;14.90;1.00
2657;DHT22;1338;48.176;11.792;2023-07-29T02:41:23;14.90;1.00
2657;DHT22;1338;48.176;11.792;2023-07-29T02:43:54;14.90;1.00
2657;DHT22;1338;48.176;11.792;2023-07-29T02:46:23;15.00;99.90
2657;DHT22;1338;48.176;11.792;2023-07-29T02:48:52;15.00;99.90
2657;DHT22;1338;48.176;11.792;2023-07-29T02:51:20;14.80;99.90
2657;DHT22;1338;48.176;11.792;2023-07-29T02:53:49;14.70;1.00
2657;DHT22;1338;48.176;11.792;2023-07-29T02:56:18;14.50;1.00
2657;DHT22;1338;48.176;11.792;2023-07-29T02:58:47;14.60;1.00
2657;DHT22;1338;48.176;11.792;2023-07-29T03:01:17;14.50;1.00
2657;DHT22;1338;48.176;11.792;2023-07-29T03:03:46;14.50;1.00
2657;DHT22;1338;48.176;11.792;2023-07-29T03:06:15;14.40;1.00
2657;DHT22;1338;48.176;11.792;2023-07-29T03:08:44;14.40;1.00
2657;DHT22;1338;48.176;11.792;2023-07-29T03:11:14;14.40;62.50
2657;DHT22;1338;48.176;11.792;2023-07-29T03:13:43;14.40;99.90
2657;DHT22;1338;48.176;11.792;2023-07-29T03:16:19;14.50;5.40
2657;DHT22;1338;48.176;11.792;2023-07-29T03:18:54;14.50;1.00
2657;DHT22;1338;48.176;11.792;2023-07-29T03:21:22;14.40;1.00
2657;DHT22;1338;48.176;11.792;2023-07-29T03:23:51;14.60;1.00
2657;DHT22;1338;48.176;11.792;2023-07-29T03:26:20;14.70;1.00
2657;DHT22;1338;48.176;11.792;2023-07-29T03:28:49;14.70;1.00
2657;DHT22;1338;48.176;11.792;2023-07-29T03:31:20;14.80;1.00
2657;DHT22;1338;48.176;11.792;2023-07-29T03:33:49;14.70;1.00
2657;DHT22;1338;48.176;11.792;2023-07-29T03:36:18;14.90;99.90
2657;DHT22;1338;48.176;11.792;2023-07-29T03:38:47;14.90;99.90
2657;DHT22;1338;48.176;11.792;2023-07-29T03:41:17;14.90;99.90
2657;DHT22;1338;48.176;11.792;2023-07-29T03:43:48;14.70;99.90
2657;DHT22;1338;48.176;11.792;2023-07-29T03:46:19;14.80;99.90
2657;DHT22;1338;48.176;11.792;2023-07-29T03:48:50;14.90;99.90
2657;DHT22;1338;48.176;11.792;2023-07-29T03:51:18;14.70;1.00
2657;DHT22;1338;48.176;11.792;2023-07-29T03:53:51;14.90;99.90
2657;DHT22;1338;48.176;11.792;2023-07-29T03:56:21;15.00;99.90
2657;DHT22;1338;48.176;11.792;2023-07-29T03:58:50;15.00;99.90
2657;DHT22;1338;48.176;11.792;2023-07-29T04:01:21;14.90;99.90
2657;DHT22;1338;48.176;11.792;2023-07-29T04:03:50;15.00;99.90
2657;DHT22;1338;48.176;11.792;2023-07-29T04:06:19;15.20;99.90
2657;DHT22;1338;48.176;11.792;2023-07-29T04:08:48;15.10;99.90
2657;DHT22;1338;48.176;11.792;2023-07-29T04:11:17;15.00;99.90
2657;DHT22;1338;48.176;11.792;2023-07-29T04:13:47;15.10;99.90
2657;DHT22;1338;48.176;11.792;2023-07-29T04:16:15;15.10;99.90
2657;DHT22;1338;48.176;11.792;2023-07-29T04:18:47;15.20;99.90
2657;DHT22;1338;48.176;11.792;2023-07-29T04:21:16;15.30;97.10
2657;DHT22;1338;48.176;11.792;2023-07-29T04:23:44;15.40;1.00
2657;DHT22;1338;48.176;11.792;2023-07-29T04:26:13;15.40;1.00
2657;DHT22;1338;48.176;11.792;2023-07-29T04:28:42;15.50;1.00
2657;DHT22;1338;48.176;11.792;2023-07-29T04:31:10;15.70;1.00
2657;DHT22;1338;48.176;11.792;2023-07-29T04:33:39;15.80;1.00
2657;DHT22;1338;48.176;11.792;2023-07-29T04:36:09;15.70;1.00
2657;DHT22;1338;48.176;11.792;2023-07-29T04:38:38;15.70;1.00
2657;DHT22;1338;48.176;11.792;2023-07-29T04:41:07;15.80;1.00
2657;DHT22;1338;48.176;11.792;2023-07-29T04:43:36;15.80;1.00
2657;DHT22;1338;48.176;11.792;2023-07-29T04:46:07;15.60;1.00
2657;DHT22;1338;48.176;11.792;2023-07-29T04:48:36;15.50;1.00
2657;DHT22;1338;48.176;11.792;2023-07-29T04:51:05;15.60;1.00
2657;DHT22;1338;48.176;11.792;2023-07-29T04:53:35;15.50;1.00
2657;DHT22;1338;48.176;11.792;2023-07-29T04:56:05;15.50;1.00
2657;DHT22;1338;48.176;11.792;2023-07-29T04:58:34;15.70;1.00
2657;DHT22;1338;48.176;11.792;2023-07-29T05:01:03;15.80;1.00
2657;DHT22;1338;48.176;11.792;2023-07-29T05:03:32;15.90;1.00
2657;DHT22;1338;48.176;11.792;2023-07-29T05:06:01;15.90;1.00
2657;DHT22;1338;48.176;11.792;2023-07-29T05:08:30;15.90;1.00
2657;DHT22;1338;48.176;11.792;2023-07-29T05:11:00;16.00;1.00
2657;DHT22;1338;48.176;11.792;2023-07-29T05:13:29;16.00;1.00
2657;DHT22;1338;48.176;11.792;2023-07-29T05:15:58;16.20;1.00
2657;DHT22;1338;48.176;11.792;2023-07-29T05:18:26;16.40;1.00
2657;DHT22;1338;48.176;11.792;2023-07-29T05:20:55;16.40;1.00
2657;DHT22;1338;48.176;11.792;2023-07-29T05:23:24;16.60;99.90
2657;DHT22;1338;48.176;11.792;2023-07-29T05:25:53;16.70;1.00
2657;DHT22;1338;48.176;11.792;2023-07-29T05:28:23;16.80;99.90
2657;DHT22;1338;48.176;11.792;2023-07-29T05:30:52;17.00;99.90
2657;DHT22;1338;48.176;11.792;2023-07-29T05:33:21;17.10;99.90
2657;DHT22;1338;48.176;11.792;2023-07-29T05:35:50;17.20;99.90
2657;DHT22;1338;48.176;11.792;2023-07-29T05:38:18;17.30;99.90
2657;DHT22;1338;48.176;11.792;2023-07-29T05:40:48;17.30;99.90
2657;DHT22;1338;48.176;11.792;2023-07-29T05:43:17;17.40;99.90
2657;DHT22;1338;48.176;11.792;2023-07-29T05:45:48;17.40;99.90
2657;DHT22;1338;48.176;11.792;2023-07-29T05:48:18;17.40;99.90
2657;DHT22;1338;48.176;11.792;2023-07-29T05:50:46;17.50;99.90
2657;DHT22;1338;48.176;11.792;2023-07-29T05:53:16;17.50;99.90
2657;DHT22;1338;48.176;11.792;2023-07-29T05:55:44;17.50;99.90
2657;DHT22;1338;48.176;11.792;2023-07-29T05:58:13;17.60;99.90
2657;DHT22;1338;48.176;11.792;2023-07-29T06:00:43;17.60;99.90
2657;DHT22;1338;48.176;11.792;2023-07-29T06:03:15;17.70;70.90
2657;DHT22;1338;48.176;11.792;2023-07-29T06:05:44;17.80;99.90
2657;DHT22;1338;48.176;11.792;2023-07-29T06:08:12;17.80;99.90
2657;DHT22;1338;48.176;11.792;2023-07-29T06:10:41;17.70;99.90
2657;DHT22;1338;48.176;11.792;2023-07-29T06:13:10;17.80;99.90
2657;DHT22;1338;48.176;11.792;2023-07-29T06:15:38;17.80;99.90
2657;DHT22;1338;48.176;11.792;2023-07-29T06:18:07;17.80;99.90
2657;DHT22;1338;48.176;11.792;2023-07-29T06:20:39;17.60;99.90
2657;DHT22;1338;48.176;11.792;2023-07-29T06:23:08;17.30;1.00
2657;DHT22;1338;48.176;11.792;2023-07-29T06:25:38;17.30;1.00
2657;DHT22;1338;48.176;11.792;2023-07-29T06:28:06;17.40;99.90
2657;DHT22;1338;48.176;11.792;2023-07-29T06:30:35;17.50;99.90
2657;DHT22;1338;48.176;11.792;2023-07-29T06:33:04;17.50;99.90
2657;DHT22;1338;48.176;11.792;2023-07-29T06:35:32;17.30;1.00
2657;DHT22;1338;48.176;11.792;2023-07-29T06:38:02;17.30;1.00
2657;DHT22;1338;48.176;11.792;2023-07-29T06:40:31;17.50;1.00
2657;DHT22;1338;48.176;11.792;2023-07-29T06:43:00;17.40;1.00
2657;DHT22;1338;48.176;11.792;2023-07-29T06:45:29;17.50;1.00
2657;DHT22;1338;48.176;11.792;2023-07-29T06:47:57;17.60;1.00
2657;DHT22;1338;48.176;11.792;2023-07-29T06:50:26;17.60;1.00
2657;DHT22;1338;48.176;11.792;2023-07-29T06:52:55;17.60;1.00
2657;DHT22;1338;48.176;11.792;2023-07-29T06:55:25;17.60;1.00
2657;DHT22;1338;48.176;11.792;2023-07-29T06:57:54;17.60;1.00
2657;DHT22;1338;48.176;11.792;2023-07-29T07:00:22;17.80;1.00
2657;DHT22;1338;48.176;11.792;2023-07-29T07:02:51;17.90;1.00
2657;DHT22;1338;48.176;11.792;2023-07-29T07:05:19;18.00;1.00
2657;DHT22;1338;48.176;11.792;2023-07-29T07:07:48;17.80;1.00
2657;DHT22;1338;48.176;11.792;2023-07-29T07:10:16;17.60;1.00
2657;DHT22;1338;48.176;11.792;2023-07-29T07:12:47;17.50;1.00
2657;DHT22;1338;48.176;11.792;2023-07-29T07:15:16;17.40;1.00
2657;DHT22;1338;48.176;11.792;2023-07-29T07:17:44;17.30;1.00
2657;DHT22;1338;48.176;11.792;2023-07-29T07:20:13;17.30;1.00
2657;DHT22;1338;48.176;11.792;2023-07-29T07:22:42;17.20;99.90
2657;DHT22;1338;48.176;11.792;2023-07-29T07:25:11;17.00;99.90
2657;DHT22;1338;48.176;11.792;2023-07-29T07:27:39;17.00;1.00
2657;DHT22;1338;48.176;11.792;2023-07-29T07:30:11;16.90;99.90
2657;DHT22;1338;48.176;11.792;2023-07-29T07:32:40;16.80;1.00
2657;DHT22;1338;48.176;11.792;2023-07-29T07:35:09;16.90;1.00
2657;DHT22;1338;48.176;11.792;2023-07-29T07:37:39;16.90;99.90
2657;DHT22;1338;48.176;11.792;2023-07-29T07:40:08;16.90;99.90
2657;DHT22;1338;48.176;11.792;2023-07-29T07:42:37;17.00;99.90
2657;DHT22;1338;48.176;11.792;2023-07-29T07:45:06;17.10;99.90
2657;DHT22;1338;48.176;11.792;2023-07-29T07:47:36;17.10;99.90
2657;DHT22;1338;48.176;11.792;2023-07-29T07:50:05;17.10;99.90
2657;DHT22;1338;48.176;11.792;2023-07-29T07:52:34;17.30;99.90
2657;DHT22;1338;48.176;11.792;2023-07-29T07:55:03;17.60;1.00
2657;DHT22;1338;48.176;11.792;2023-07-29T07:57:32;17.60;1.00
2657;DHT22;1338;48.176;11.792;2023-07-29T08:00:01;17.60;1.00
2657;DHT22;1338;48.176;11.792;2023-07-29T08:02:40;17.60;1.00
2657;DHT22;1338;48.176;11.792;2023-07-29T08:05:09;17.80;1.00
2657;DHT22;1338;48.176;11.792;2023-07-29T08:07:38;18.10;1.00
2657;DHT22;1338;48.176;11.792;2023-07-29T08:10:07;18.20;99.90
2657;DHT22;1338;48.176;11.792;2023-07-29T08:12:36;18.20;99.90
2657;DHT22;1338;48.176;11.792;2023-07-29T08:15:08;18.30;99.90
2657;DHT22;1338;48.176;11.792;2023-07-29T08:17:36;18.50;99.90
2657;DHT22;1338;48.176;11.792;2023-07-29T08:20:09;18.70;99.90
2657;DHT22;1338;48.176;11.792;2023-07-29T08:22:39;18.60;99.90
2657;DHT22;1338;48.176;11.792;2023-07-29T08:25:09;18.70;99.90
2657;DHT22;1338;48.176;11.792;2023-07-29T08:27:44;18.60;1.00
2657;DHT22;1338;48.176;11.792;2023-07-29T08:30:13;18.60;99.90
2657;DHT22;1338;48.176;11.792;2023-07-29T08:32:43;18.70;99.90
2657;DHT22;1338;48.176;11.792;2023-07-29T08:35:13;18.80;99.90
2657;DHT22;1338;48.176;11.792;2023-07-29T08:37:45;19.00;99.90
2657;DHT22;1338;48.176;11.792;2023-07-29T08:40:14;19.20;99.90
2657;DHT22;1338;48.176;11.792;2023-07-29T08:42:45;19.10;99.90
2657;DHT22;1338;48.176;11.792;2023-07-29T08:45:17;19.20;99.90
2657;DHT22;1338;48.176;11.792;2023-07-29T08:47:46;19.40;99.90
2657;DHT22;1338;48.176;11.792;2023-07-29T08:50:18;19.30;99.90
2657;DHT22;1338;48.176;11.792;2023-07-29T08:52:48;19.40;99.90
2657;DHT22;1338;48.176;11.792;2023-07-29T08:55:18;19.40;99.90
2657;DHT22;1338;48.176;11.792;2023-07-29T08:57:47;19.50;75.20
2657;DHT22;1338;48.176;11.792;2023-07-29T09:00:16;19.40;99.90
2657;DHT22;1338;48.176;11.792;2023-07-29T09:02:47;19.50;1.00
2657;DHT22;1338;48.176;11.792;2023-07-29T09:05:17;19.60;1.00
2657;DHT22;1338;48.176;11.792;2023-07-29T09:07:51;19.80;1.00
2657;DHT22;1338;48.176;11.792;2023-07-29T09:10:22;19.90;1.00
2657;DHT22;1338;48.176;11.792;2023-07-29T09:12:55;19.90;1.00
2657;DHT22;1338;48.176;11.792;2023-07-29T09:15:27;20.00;1.00
2657;DHT22;1338;48.176;11.792;2023-07-29T09:17:57;20.00;1.00
2657;DHT22;1338;48.176;11.792;2023-07-29T09:20:30;20.20;1.00
2657;DHT22;1338;48.176;11.792;2023-07-29T09:23:03;20.30;1.00
2657;DHT22;1338;48.176;11.792;2023-07-29T09:25:31;20.40;1.00
2657;DHT22;1338;48.176;11.792;2023-07-29T09:28:07;20.40;1.00
2657;DHT22;1338;48.176;11.792;2023-07-29T09:30:38;20.50;1.00
2657;DHT22;1338;48.176;11.792;2023-07-29T09:33:08;20.80;1.00
2657;DHT22;1338;48.176;11.792;2023-07-29T09:35:42;20.90;1.00
2657;DHT22;1338;48.176;11.792;2023-07-29T09:38:14;21.10;1.00
2657;DHT22;1338;48.176;11.792;2023-07-29T09:40:43;21.20;1.00
2657;DHT22;1338;48.176;11.792;2023-07-29T09:43:13;21.20;1.00
2657;DHT22;1338;48.176;11.792;2023-07-29T09:45:46;21.50;1.00
2657;DHT22;1338;48.176;11.792;2023-07-29T09:48:22;21.60;1.00
2657;DHT22;1338;48.176;11.792;2023-07-29T09:50:55;21.60;1.00
2657;DHT22;1338;48.176;11.792;2023-07-29T09:53:24;22.00;1.00
2657;DHT22;1338;48.176;11.792;2023-07-29T09:55:54;22.10;1.00
2657;DHT22;1338;48.176;11.792;2023-07-29T09:58:27;22.00;99.90
2657;DHT22;1338;48.176;11.792;2023-07-29T10:00:59;22.30;1.00
2657;DHT22;1338;48.176;11.792;2023-07-29T10:03:29;22.40;99.90
2657;DHT22;1338;48.176;11.792;2023-07-29T10:12:41;22.70;99.90
2657;DHT22;1338;48.176;11.792;2023-07-29T10:15:13;22.50;99.90
2657;DHT22;1338;48.176;11.792;2023-07-29T10:17:46;22.50;99.90
2657;DHT22;1338;48.176;11.792;2023-07-29T10:20:32;22.60;99.90
2657;DHT22;1338;48.176;11.792;2023-07-29T10:23:03;23.10;99.90
2657;DHT22;1338;48.176;11.792;2023-07-29T10:25:38;23.20;99.90
2657;DHT22;1338;48.176;11.792;2023-07-29T10:28:27;23.20;99.90
2657;DHT22;1338;48.176;11.792;2023-07-29T10:31:04;23.30;99.90
2657;DHT22;1338;48.176;11.792;2023-07-29T10:33:37;23.20;99.90
2657;DHT22;1338;48.176;11.792;2023-07-29T10:36:08;23.10;99.90
2657;DHT22;1338;48.176;11.792;2023-07-29T10:38:41;23.20;99.90
2657;DHT22;1338;48.176;11.792;2023-07-29T10:41:13;23.40;99.90
2657;DHT22;1338;48.176;11.792;2023-07-29T10:43:43;23.50;99.90
2657;DHT22;1338;48.176;11.792;2023-07-29T10:46:17;23.70;99.90
2657;DHT22;1338;48.176;11.792;2023-07-29T10:48:56;24.00;99.90
2657;DHT22;1338;48.176;11.792;2023-07-29T10:51:29;24.00;99.90
2657;DHT22;1338;48.176;11.792;2023-07-29T10:54:01;24.40;99.90
2657;DHT22;1338;48.176;11.792;2023-07-29T10:56:31;24.50;99.90
2657;DHT22;1338;48.176;11.792;2023-07-29T10:59:36;24.50;99.90
2657;DHT22;1338;48.176;11.792;2023-07-29T11:02:15;24.60;99.90
2657;DHT22;1338;48.176;11.792;2023-07-29T11:04:49;24.90;99.90
2657;DHT22;1338;48.176;11.792;2023-07-29T11:07:22;24.80;71.80
2657;DHT22;1338;48.176;11.792;2023-07-29T11:10:01;24.60;53.10
2657;DHT22;1338;48.176;11.792;2023-07-29T11:12:49;25.30;59.30
2657;DHT22;1338;48.176;11.792;2023-07-29T11:15:22;25.40;35.00
2657;DHT22;1338;48.176;11.792;2023-07-29T11:17:52;25.20;22.80
2657;DHT22;1338;48.176;11.792;2023-07-29T11:20:24;24.40;30.90
2657;DHT22;1338;48.176;11.792;2023-07-29T11:22:55;23.90;53.50
2657;DHT22;1338;48.176;11.792;2023-07-29T11:25:24;23.90;76.50
2657;DHT22;1338;48.176;11.792;2023-07-29T11:27:53;23.90;75.10
2657;DHT22;1338;48.176;11.792;2023-07-29T11:30:25;22.30;90.80
2657;DHT22;1338;48.176;11.792;2023-07-29T11:32:57;21.30;99.90
2657;DHT22;1338;48.176;11.792;2023-07-29T11:35:26;21.10;99.90
2657;DHT22;1338;48.176;11.792;2023-07-29T11:37:55;21.00;99.90
2657;DHT22;1338;48.176;11.792;2023-07-29T11:40:24;21.90;99.90
2657;DHT22;1338;48.176;11.792;2023-07-29T11:42:54;22.10;96.30
2657;DHT22;1338;48.176;11.792;2023-07-29T11:45:24;22.20;95.20
2657;DHT22;1338;48.176;11.792;2023-07-29T11:48:12;21.70;99.90
2657;DHT22;1338;48.176;11.792;2023-07-29T11:50:41;22.10;99.90
2657;DHT22;1338;48.176;11.792;2023-07-29T11:53:11;22.40;99.90
2657;DHT22;1338;48.176;11.792;2023-07-29T11:55:43;22.70;99.90
2657;DHT22;1338;48.176;11.792;2023-07-29T11:58:12;22.70;87.70
2657;DHT22;1338;48.176;11.792;2023-07-29T12:00:42;23.10;94.60
2657;DHT22;1338;48.176;11.792;2023-07-29T12:03:13;23.00;62.60
2657;DHT22;1338;48.176;11.792;2023-07-29T12:05:43;24.10;63.80
2657;DHT22;1338;48.176;11.792;2023-07-29T12:08:12;24.20;42.00
2657;DHT22;1338;48.176;11.792;2023-07-29T12:10:41;23.60;15.90
2657;DHT22;1338;48.176;11.792;2023-07-29T12:13:23;24.30;8.10
2657;DHT22;1338;48.176;11.792;2023-07-29T12:16:01;24.10;1.00
2657;DHT22;1338;48.176;11.792;2023-07-29T12:18:30;24.60;1.00
2657;DHT22;1338;48.176;11.792;2023-07-29T12:20:59;24.70;1.00
2657;DHT22;1338;48.176;11.792;2023-07-29T12:23:28;25.10;1.00
2657;DHT22;1338;48.176;11.792;2023-07-29T12:25:57;25.30;1.00
2657;DHT22;1338;48.176;11.792;2023-07-29T12:28:26;25.40;1.00
2657;DHT22;1338;48.176;11.792;2023-07-29T12:30:57;26.20;1.00
2657;DHT22;1338;48.176;11.792;2023-07-29T12:33:30;25.70;1.00
2657;DHT22;1338;48.176;11.792;2023-07-29T12:35:58;24.90;1.00
2657;DHT22;1338;48.176;11.792;2023-07-29T12:38:27;24.90;1.00
2657;DHT22;1338;48.176;11.792;2023-07-29T12:40:55;25.50;1.00
2657;DHT22;1338;48.176;11.792;2023-07-29T12:43:25;25.70;1.00
2657;DHT22;1338;48.176;11.792;2023-07-29T12:45:53;25.30;1.00
2657;DHT22;1338;48.176;11.792;2023-07-29T12:48:23;24.70;1.00
2657;DHT22;1338;48.176;11.792;2023-07-29T12:50:51;24.00;1.00
2657;DHT22;1338;48.176;11.792;2023-07-29T12:53:20;23.80;1.00
2657;DHT22;1338;48.176;11.792;2023-07-29T12:55:48;23.60;1.00
2657;DHT22;1338;48.176;11.792;2023-07-29T12:58:17;23.50;1.00
2657;DHT22;1338;48.176;11.792;2023-07-29T13:00:45;23.00;1.00
2657;DHT22;1338;48.176;11.792;2023-07-29T13:03:14;22.80;1.00
2657;DHT22;1338;48.176;11.792;2023-07-29T13:05:44;22.80;43.60
2657;DHT22;1338;48.176;11.792;2023-07-29T13:08:15;22.10;99.90
2657;DHT22;1338;48.176;11.792;2023-07-29T13:10:43;21.70;99.90
2657;DHT22;1338;48.176;11.792;2023-07-29T13:13:11;21.60;1.00
2657;DHT22;1338;48.176;11.792;2023-07-29T13:15:39;22.30;99.90
2657;DHT22;1338;48.176;11.792;2023-07-29T13:18:09;21.50;1.00
2657;DHT22;1338;48.176;11.792;2023-07-29T13:20:38;20.40;1.00
2657;DHT22;1338;48.176;11.792;2023-07-29T13:23:08;20.00;1.00
2657;DHT22;1338;48.176;11.792;2023-07-29T13:25:36;19.80;99.90
2657;DHT22;1338;48.176;11.792;2023-07-29T13:28:05;19.70;1.00
2657;DHT22;1338;48.176;11.792;2023-07-29T13:30:34;19.60;99.90
2657;DHT22;1338;48.176;11.792;2023-07-29T13:33:04;19.50;1.00
2657;DHT22;1338;48.176;11.792;2023-07-29T13:35:32;19.70;99.90
2657;DHT22;1338;48.176;11.792;2023-07-29T13:38:01;20.50;93.80
2657;DHT22;1338;48.176;11.792;2023-07-29T13:40:31;20.30;1.00
2657;DHT22;1338;48.176;11.792;2023-07-29T13:43:04;19.90;1.00
2657;DHT22;1338;48.176;11.792;2023-07-29T13:45:34;19.40;99.90
2657;DHT22;1338;48.176;11.792;2023-07-29T13:48:03;19.70;99.90
2657;DHT22;1338;48.176;11.792;2023-07-29T13:50:34;20.30;44.80
2657;DHT22;1338;48.176;11.792;2023-07-29T13:53:02;20.50;1.00
2657;DHT22;1338;48.176;11.792;2023-07-29T13:55:33;20.50;99.90
2657;DHT22;1338;48.176;11.792;2023-07-29T13:58:02;20.50;99.90
2657;DHT22;1338;48.176;11.792;2023-07-29T14:00:30;20.20;99.90
2657;DHT22;1338;48.176;11.792;2023-07-29T14:02:59;20.40;99.90
2657;DHT22;1338;48.176;11.792;2023-07-29T14:05:28;20.40;99.90
2657;DHT22;1338;48.176;11.792;2023-07-29T14:07:56;20.90;99.90
2657;DHT22;1338;48.176;11.792;2023-07-29T14:10:28;21.20;16.50
2657;DHT22;1338;48.176;11.792;2023-07-29T14:12:58;20.80;99.90
2657;DHT22;1338;48.176;11.792;2023-07-29T14:15:28;20.90;1.00
2657;DHT22;1338;48.176;11.792;2023-07-29T14:17:59;20.70;99.90
2657;DHT22;1338;48.176;11.792;2023-07-29T14:20:29;20.50;99.90
2657;DHT22;1338;48.176;11.792;2023-07-29T14:23:00;20.30;99.90
2657;DHT22;1338;48.176;11.792;2023-07-29T14:25:29;20.60;99.90
2657;DHT22;1338;48.176;11.792;2023-07-29T14:28:01;21.10;1.00
2657;DHT22;1338;48.176;11.792;2023-07-29T14:30:30;20.50;1.00
2657;DHT22;1338;48.176;11.792;2023-07-29T14:32:59;20.30;99.90
2657;DHT22;1338;48.176;11.792;2023-07-29T14:35:28;20.30;99.90
2657;DHT22;1338;48.176;11.792;2023-07-29T14:37:57;20.40;99.90
2657;DHT22;1338;48.176;11.792;2023-07-29T14:40:26;20.40;99.90
2657;DHT22;1338;48.176;11.792;2023-07-29T14:42:55;20.30;99.90
2657;DHT22;1338;48.176;11.792;2023-07-29T14:45:25;20.20;99.90
2657;DHT22;1338;48.176;11.792;2023-07-29T14:47:54;20.00;99.90
2657;DHT22;1338;48.176;11.792;2023-07-29T14:50:23;19.90;1.00
2657;DHT22;1338;48.176;11.792;2023-07-29T14:52:51;19.70;1.00
2657;DHT22;1338;48.176;11.792;2023-07-29T14:55:20;19.60;1.00
2657;DHT22;1338;48.176;11.792;2023-07-29T14:57:49;19.50;1.00
2657;DHT22;1338;48.176;11.792;2023-07-29T15:00:18;19.40;1.00
2657;DHT22;1338;48.176;11.792;2023-07-29T15:02:48;19.30;1.00
2657;DHT22;1338;48.176;11.792;2023-07-29T15:05:17;19.30;1.00
2657;DHT22;1338;48.176;11.792;2023-07-29T15:07:46;19.30;1.00
2657;DHT22;1338;48.176;11.792;2023-07-29T15:10:15;19.40;1.00
2657;DHT22;1338;48.176;11.792;2023-07-29T15:12:44;19.30;1.00
2657;DHT22;1338;48.176;11.792;2023-07-29T15:15:12;19.40;1.00
2657;DHT22;1338;48.176;11.792;2023-07-29T15:17:41;19.70;1.00
2657;DHT22;1338;48.176;11.792;2023-07-29T15:20:12;19.60;1.00
2657;DHT22;1338;48.176;11.792;2023-07-29T15:22:41;19.50;99.90
2657;DHT22;1338;48.176;11.792;2023-07-29T15:25:10;19.20;99.90
2657;DHT22;1338;48.176;11.792;2023-07-29T15:27:39;19.10;99.90
2657;DHT22;1338;48.176;11.792;2023-07-29T15:30:08;19.20;99.90
2657;DHT22;1338;48.176;11.792;2023-07-29T15:32:39;19.20;99.90
2657;DHT22;1338;48.176;11.792;2023-07-29T15:35:09;19.30;99.90
2657;DHT22;1338;48.176;11.792;2023-07-29T15:37:39;19.20;99.90
2657;DHT22;1338;48.176;11.792;2023-07-29T15:40:09;19.10;1.00
2657;DHT22;1338;48.176;11.792;2023-07-29T15:42:38;19.10;1.00
2657;DHT22;1338;48.176;11.792;2023-07-29T15:45:07;19.10;1.00
2657;DHT22;1338;48.176;11.792;2023-07-29T15:47:36;19.20;1.00
2657;DHT22;1338;48.176;11.792;2023-07-29T15:50:06;19.30;99.90
2657;DHT22;1338;48.176;11.792;2023-07-29T15:52:34;19.40;99.90
2657;DHT22;1338;48.176;11.792;2023-07-29T15:55:06;19.40;99.90
2657;DHT22;1338;48.176;11.792;2023-07-29T15:57:35;19.30;99.90
2657;DHT22;1338;48.176;11.792;2023-07-29T16:00:05;19.30;99.90
2657;DHT22;1338;48.176;11.792;2023-07-29T16:02:41;19.30;99.90
2657;DHT22;1338;48.176;11.792;2023-07-29T16:05:13;19.20;99.90
2657;DHT22;1338;48.176;11.792;2023-07-29T16:07:41;19.10;1.00
2657;DHT22;1338;48.176;11.792;2023-07-29T16:10:12;19.10;99.90
2657;DHT22;1338;48.176;11.792;2023-07-29T16:12:41;19.00;99.90
2657;DHT22;1338;48.176;11.792;2023-07-29T16:15:13;19.20;99.90
2657;DHT22;1338;48.176;11.792;2023-07-29T16:17:42;19.30;99.90